Time;durP1;ratioP1;P1;durP2;ratioP2;P2;SDS_P1;SDS_P2;PMS_P1;PMS_P2;Temp;Humidity;BMP_temperature;BMP_pressure;BME280_temperature;BME280_humidity;BME280_pressure;Samples;Min_cycle;Max_cycle;Signal;HPM_P1;HPM_P2
2020/12/15 00:01:57;;;;;;;2.42;1.90;;;7.30;84.20;;;;;;5032413;28;20482;-84
2020/12/15 00:04:23;;;;;;;3.05;2.42;;;7.30;83.20;;;;;;5032293;28;20419;-82
2020/12/15 00:06:48;;;;;;;1.90;1.70;;;7.40;83.60;;;;;;5015558;28;20025;-82
2020/12/15 00:09:15;;;;;;;3.45;1.65;;;;;;;;;;5032450;28;20036;-82
2020/12/15 00:11:40;;;;;;;2.53;2.00;;;7.50;88.40;;;;;;5031962;28;20029;-82
2020/12/15 00:14:06;;;;;;;1.83;1.70;;;7.70;80.60;;;;;;5015136;28;20042;-83
2020/12/15 00:16:31;;;;;;;2.17;1.73;;;7.70;80.30;;;;;;5014760;28;20051;-82
2020/12/15 00:18:57;;;;;;;1.77;1.67;;;7.80;79.90;;;;;;5032018;28;20036;-83
2020/12/15 00:21:23;;;;;;;1.92;1.83;;;;;;;;;;5015508;28;20065;-82
2020/12/15 00:23:50;;;;;;;2.28;1.75;;;7.90;90.00;;;;;;5015338;28;20033;-84
2020/12/15 00:26:16;;;;;;;2.42;1.75;;;7.80;81.20;;;;;;5031586;28;20083;-82
2020/12/15 00:28:42;;;;;;;3.65;2.20;;;7.80;82.10;;;;;;5031459;28;20033;-83
2020/12/15 00:31:07;;;;;;;3.90;2.25;;;7.80;81.30;;;;;;5015096;28;20032;-83
2020/12/15 00:33:33;;;;;;;4.95;2.40;;;;;;;;;;5031242;28;20025;-83
2020/12/15 00:35:59;;;;;;;3.65;2.30;;;7.90;87.60;;;;;;5031297;28;20025;-82
2020/12/15 00:38:24;;;;;;;4.30;2.65;;;7.80;81.70;;;;;;5031419;28;20033;-82
2020/12/15 00:40:50;;;;;;;3.70;2.38;;;7.80;82.30;;;;;;5014941;28;20067;-82
2020/12/15 00:43:16;;;;;;;3.83;2.03;;;7.80;82.20;;;;;;5015067;28;20022;-83
2020/12/15 00:45:42;;;;;;;2.72;2.20;;;;;;;;;;5014535;28;20033;-82
2020/12/15 00:48:07;;;;;;;3.92;2.13;;;8.00;88.60;;;;;;5030687;28;20025;-82
2020/12/15 00:50:33;;;;;;;4.68;2.10;;;8.20;84.10;;;;;;4998515;28;20099;-82
2020/12/15 00:52:58;;;;;;;4.13;1.90;;;7.70;84.10;;;;;;5014605;28;20102;-82
2020/12/15 00:55:24;;;;;;;2.42;1.98;;;7.70;84.30;;;;;;5031135;28;20357;-84
2020/12/15 00:57:50;;;;;;;1.98;1.80;;;;;;;;;;5014800;28;20032;-83
2020/12/15 01:00:15;;;;;;;2.63;2.17;;;7.60;90.10;;;;;;5031060;28;20446;-82
2020/12/15 01:02:41;;;;;;;2.92;2.30;;;;;;;;;;5014707;28;20036;-83
2020/12/15 01:05:07;;;;;;;3.03;2.55;;;7.70;82.00;;;;;;5014409;28;20056;-82
2020/12/15 01:07:33;;;;;;;2.97;2.67;;;7.70;84.50;;;;;;5014597;28;20061;-82
2020/12/15 01:09:58;;;;;;;2.92;2.53;;;7.60;99.90;;;;;;5030981;28;20029;-83
2020/12/15 01:12:24;;;;;;;3.78;2.63;;;7.70;92.70;;;;;;4998328;28;20026;-83
2020/12/15 01:14:49;;;;;;;2.65;2.10;;;7.60;85.60;;;;;;5014612;28;20087;-83
2020/12/15 01:17:15;;;;;;;1.80;1.70;;;7.50;84.80;;;;;;5014554;28;20033;-82
2020/12/15 01:19:41;;;;;;;3.55;1.95;;;7.80;99.20;;;;;;5030862;28;20032;-82
2020/12/15 01:22:06;;;;;;;3.35;2.00;;;7.60;83.30;;;;;;5014668;28;20065;-82
2020/12/15 01:24:32;;;;;;;2.85;2.10;;;7.80;92.10;;;;;;5014801;28;20025;-82
2020/12/15 01:26:58;;;;;;;2.67;2.25;;;7.70;83.20;;;;;;5000038;28;20087;-83
2020/12/15 01:29:23;;;;;;;3.50;2.25;;;7.70;83.90;;;;;;5018366;28;20033;-82
2020/12/15 01:31:49;;;;;;;2.55;2.20;;;7.70;84.10;;;;;;5018557;28;20033;-83
2020/12/15 01:34:14;;;;;;;5.30;2.17;;;7.70;84.30;;;;;;5018255;28;20045;-84
2020/12/15 01:36:40;;;;;;;3.65;2.40;;;;;;;;;;5035010;28;20022;-84
2020/12/15 01:39:06;;;;;;;2.92;2.30;;;7.70;83.40;;;;;;5018259;28;20022;-83
2020/12/15 01:41:31;;;;;;;2.28;2.08;;;7.70;84.90;;;;;;5018472;28;20025;-84
2020/12/15 01:44:01;;;;;;;2.30;1.90;;;7.60;99.70;;;;;;5001710;28;20125;-83
2020/12/15 01:46:27;;;;;;;2.67;2.13;;;7.70;84.60;;;;;;5018277;28;20022;-83
2020/12/15 01:48:57;;;;;;;2.10;1.90;;;7.60;85.30;;;;;;5001758;28;20030;-83
2020/12/15 01:51:26;;;;;;;3.22;1.85;;;7.50;85.30;;;;;;5001715;28;20530;-83
2020/12/15 01:53:54;;;;;;;1.88;1.77;;;7.50;85.80;;;;;;5001318;28;20064;-84
2020/12/15 01:56:20;;;;;;;1.70;1.42;;;7.40;95.50;;;;;;5018317;28;20441;-83
2020/12/15 01:58:47;;;;;;;2.30;2.10;;;7.50;85.70;;;;;;5018108;28;20045;-83
2020/12/15 02:01:12;;;;;;;1.98;1.80;;;7.50;85.20;;;;;;5017691;28;20035;-82
2020/12/15 02:03:38;;;;;;;2.60;1.65;;;7.60;85.80;;;;;;5018123;28;20531;-82
2020/12/15 02:06:04;;;;;;;2.85;2.00;;;7.60;85.50;;;;;;5017824;28;20025;-82
2020/12/15 02:08:29;;;;;;;2.95;2.60;;;7.70;94.80;;;;;;5001405;28;20364;-82
2020/12/15 02:10:55;;;;;;;5.25;3.60;;;7.70;87.20;;;;;;5001272;28;20053;-82
2020/12/15 02:13:22;;;;;;;3.38;2.83;;;7.50;89.50;;;;;;5017867;28;20044;-84
2020/12/15 02:15:48;;;;;;;2.63;2.40;;;7.40;90.00;;;;;;5034140;28;20147;-83
2020/12/15 02:18:14;;;;;;;3.22;2.28;;;7.40;88.40;;;;;;5017773;28;20025;-83
2020/12/15 02:20:39;;;;;;;2.30;2.08;;;7.40;99.90;;;;;;5017446;28;20029;-83
2020/12/15 02:23:05;;;;;;;2.05;1.77;;;7.40;87.70;;;;;;5017469;28;20030;-82
2020/12/15 02:25:31;;;;;;;2.08;1.98;;;7.40;87.10;;;;;;5017437;28;20836;-83
2020/12/15 02:27:56;;;;;;;2.70;1.75;;;7.50;86.80;;;;;;5001131;28;20037;-83
2020/12/15 02:30:22;;;;;;;3.80;2.13;;;7.40;87.30;;;;;;5001085;28;20029;-84
2020/12/15 02:32:48;;;;;;;2.50;2.08;;;7.30;99.90;;;;;;5017703;28;20025;-83
2020/12/15 02:35:14;;;;;;;2.65;2.38;;;7.50;94.00;;;;;;5033815;28;20068;-83
2020/12/15 02:37:40;;;;;;;2.50;2.30;;;7.30;89.40;;;;;;5016365;28;20031;-82
2020/12/15 02:40:05;;;;;;;3.15;2.40;;;7.20;90.40;;;;;;5016955;28;20021;-83
2020/12/15 02:42:31;;;;;;;2.60;2.40;;;7.30;90.60;;;;;;5017058;28;20037;-82
2020/12/15 02:44:57;;;;;;;2.80;2.42;;;;;;;;;;5016837;28;20044;-84
2020/12/15 02:47:23;;;;;;;2.63;2.40;;;6.70;94.00;;;;;;5033440;28;20021;-82
2020/12/15 02:49:48;;;;;;;2.30;2.10;;;6.90;91.10;;;;;;5033286;28;20025;-82
2020/12/15 02:52:15;;;;;;;2.47;2.15;;;7.20;90.80;;;;;;5016542;28;20029;-82
2020/12/15 02:54:41;;;;;;;2.85;2.55;;;7.10;99.90;;;;;;5000547;28;20270;-82
2020/12/15 02:57:07;;;;;;;3.05;2.75;;;;;;;;;;5016685;28;20464;-82
2020/12/15 02:59:33;;;;;;;3.90;2.30;;;7.00;94.60;;;;;;5033059;28;20017;-82
2020/12/15 03:01:58;;;;;;;2.53;2.15;;;7.10;91.40;;;;;;5033389;28;20057;-84
2020/12/15 03:04:24;;;;;;;2.38;2.17;;;7.10;91.20;;;;;;5017208;28;20052;-83
2020/12/15 03:06:49;;;;;;;2.90;2.10;;;7.00;96.50;;;;;;5016969;28;20032;-83
2020/12/15 03:09:15;;;;;;;2.55;2.10;;;7.60;90.10;;;;;;5000484;28;20030;-82
2020/12/15 03:11:40;;;;;;;3.17;2.33;;;7.40;95.40;;;;;;5033046;28;20040;-82
2020/12/15 03:14:06;;;;;;;2.47;2.25;;;7.30;89.00;;;;;;5016353;28;20041;-83
2020/12/15 03:16:32;;;;;;;3.38;2.50;;;7.30;89.30;;;;;;5016543;28;20365;-82
2020/12/15 03:18:58;;;;;;;4.20;2.67;;;7.30;99.90;;;;;;5000201;28;20033;-83
2020/12/15 03:21:24;;;;;;;3.97;2.83;;;7.30;89.80;;;;;;4999937;28;20036;-83
2020/12/15 03:23:53;;;;;;;6.82;3.17;;;7.50;90.00;;;;;;5000051;28;20048;-83
2020/12/15 03:26:18;;;;;;;4.60;3.00;;;7.40;89.20;;;;;;5016501;28;20022;-83
2020/12/15 03:28:44;;;;;;;5.53;3.72;;;7.50;90.00;;;;;;5016055;28;20522;-83
2020/12/15 03:31:10;;;;;;;5.47;2.80;;;7.70;99.90;;;;;;5016274;28;20025;-83
2020/12/15 03:33:35;;;;;;;4.00;2.13;;;7.40;89.40;;;;;;5016140;28;20476;-83
2020/12/15 03:36:01;;;;;;;2.83;2.10;;;7.40;88.50;;;;;;5032790;28;20029;-82
2020/12/15 03:38:27;;;;;;;2.28;1.98;;;7.50;87.10;;;;;;5016216;28;20380;-84
2020/12/15 03:40:52;;;;;;;2.58;2.00;;;7.60;86.60;;;;;;5015905;28;20108;-82
2020/12/15 03:43:18;;;;;;;5.40;2.70;;;7.60;99.90;;;;;;5016077;28;20518;-83
2020/12/15 03:45:44;;;;;;;4.68;2.58;;;7.70;87.10;;;;;;5015988;28;20025;-83
2020/12/15 03:48:11;;;;;;;4.25;2.50;;;7.70;87.10;;;;;;5015766;28;20388;-82
2020/12/15 03:50:36;;;;;;;2.90;2.42;;;7.80;86.70;;;;;;5032162;28;20044;-83
2020/12/15 03:53:02;;;;;;;3.28;2.35;;;7.80;87.60;;;;;;4999277;28;20045;-82
2020/12/15 03:55:28;;;;;;;2.60;2.20;;;7.90;99.90;;;;;;4999223;28;20114;-83
2020/12/15 03:57:53;;;;;;;2.75;1.90;;;7.60;87.70;;;;;;4999108;28;20380;-84
2020/12/15 04:00:19;;;;;;;5.60;2.72;;;7.60;87.40;;;;;;5015684;28;20026;-82
2020/12/15 04:02:45;;;;;;;12.45;7.38;;;7.70;87.20;;;;;;4999386;28;20448;-83
2020/12/15 04:05:10;;;;;;;11.93;5.80;;;7.70;87.10;;;;;;5015664;28;20029;-83
2020/12/15 04:07:37;;;;;;;5.60;3.42;;;;;;;;;;5015389;28;20049;-82
2020/12/15 04:10:04;;;;;;;4.53;3.40;;;7.70;85.50;;;;;;5032119;28;20029;-82
2020/12/15 04:12:29;;;;;;;2.85;1.83;;;7.70;86.10;;;;;;4999126;28;20041;-84
2020/12/15 04:14:55;;;;;;;2.67;2.17;;;7.80;86.00;;;;;;5015495;28;20049;-83
2020/12/15 04:17:20;;;;;;;2.50;1.98;;;7.80;86.00;;;;;;5015557;28;20100;-82
2020/12/15 04:19:46;;;;;;;7.38;3.03;;;;;;;;;;5015511;28;20029;-83
2020/12/15 04:22:12;;;;;;;2.25;2.05;;;7.90;84.50;;;;;;5015387;28;20028;-82
2020/12/15 04:24:37;;;;;;;2.38;2.15;;;7.90;85.90;;;;;;5015176;28;20033;-82
2020/12/15 04:27:04;;;;;;;5.35;2.13;;;7.80;87.50;;;;;;5015053;28;20104;-83
2020/12/15 04:29:30;;;;;;;2.35;2.15;;;7.70;88.90;;;;;;5015256;28;20483;-82
2020/12/15 04:31:56;;;;;;;2.85;2.22;;;;;;;;;;4998923;28;20025;-83
2020/12/15 04:34:21;;;;;;;3.60;2.42;;;7.30;92.50;;;;;;5031494;28;20033;-82
2020/12/15 04:36:47;;;;;;;2.20;2.00;;;7.50;90.20;;;;;;5014987;28;20079;-84
2020/12/15 04:39:13;;;;;;;1.98;1.83;;;7.60;90.30;;;;;;4998637;28;20021;-82
2020/12/15 04:41:38;;;;;;;2.15;1.95;;;7.50;89.30;;;;;;5015537;28;20475;-82
2020/12/15 04:44:04;;;;;;;1.85;1.75;;;7.40;99.90;;;;;;5014993;28;20025;-84
2020/12/15 04:46:30;;;;;;;1.83;1.73;;;7.60;95.30;;;;;;4998585;28;20033;-83
2020/12/15 04:49:07;;;;;;;2.42;2.20;;;7.50;90.30;;;;;;4998881;28;20380;-84
2020/12/15 04:51:38;;;;;;;4.18;2.42;;;7.60;88.20;;;;;;5014855;28;20471;-83
2020/12/15 04:54:04;;;;;;;3.33;2.50;;;7.60;88.30;;;;;;4994834;28;20522;-83
2020/12/15 04:56:31;;;;;;;3.65;2.45;;;7.80;93.40;;;;;;4995635;28;20026;-83
2020/12/15 04:58:57;;;;;;;2.67;2.30;;;7.70;94.00;;;;;;4978898;28;20029;-84
2020/12/15 05:01:24;;;;;;;3.03;2.50;;;;;;;;;;4994769;28;20026;-83
2020/12/15 05:03:51;;;;;;;3.17;2.78;;;7.80;87.30;;;;;;4995296;28;20025;-84
2020/12/15 05:06:17;;;;;;;4.13;2.88;;;7.60;99.70;;;;;;4995242;28;20018;-83
2020/12/15 05:08:47;;;;;;;3.45;2.90;;;7.70;95.40;;;;;;4978707;28;20030;-83
2020/12/15 05:11:12;;;;;;;3.67;3.22;;;7.80;87.60;;;;;;4978934;28;20037;-83
2020/12/15 05:13:38;;;;;;;3.65;2.90;;;7.80;89.70;;;;;;4974997;28;20109;-83
2020/12/15 05:16:04;;;;;;;4.13;2.83;;;7.80;89.20;;;;;;5011381;28;20453;-83
2020/12/15 05:18:30;;;;;;;3.70;3.03;;;;;;;;;;4978683;28;20026;-84
2020/12/15 05:20:55;;;;;;;2.50;2.30;;;7.80;92.40;;;;;;5010388;28;20022;-83
2020/12/15 05:23:21;;;;;;;105.30;45.75;;;7.70;89.40;;;;;;4994685;28;20049;-83
2020/12/15 05:25:46;;;;;;;3.72;3.00;;;7.70;89.20;;;;;;4994864;28;20438;-84
2020/12/15 05:28:13;;;;;;;3.33;2.58;;;7.80;90.10;;;;;;5011165;28;20033;-83
2020/12/15 05:30:39;;;;;;;10.25;9.20;;;;;;;;;;4995000;28;20376;-83
2020/12/15 05:33:08;;;;;;;2.67;2.33;;;7.80;93.60;;;;;;4994704;28;20030;-83
2020/12/15 05:35:35;;;;;;;2.60;2.30;;;8.00;87.70;;;;;;4978712;28;20124;-83
2020/12/15 05:38:02;;;;;;;5.85;4.90;;;8.10;87.00;;;;;;5011114;28;20045;-83
2020/12/15 05:40:28;;;;;;;3.50;2.38;;;8.20;86.30;;;;;;4977234;28;20106;-84
2020/12/15 05:42:55;;;;;;;5.57;4.47;;;8.20;86.60;;;;;;5007826;28;20432;-83
2020/12/15 05:45:21;;;;;;;3.20;2.50;;;8.20;87.90;;;;;;4994219;28;20104;-83
2020/12/15 05:47:48;;;;;;;3.25;2.90;;;8.20;88.00;;;;;;4993291;28;20065;-83
2020/12/15 05:50:24;;;;;;;4.30;3.50;;;8.10;89.40;;;;;;4994732;28;20026;-83
2020/12/15 05:52:57;;;;;;;4.32;3.35;;;8.00;99.90;;;;;;4978391;28;20073;-83
2020/12/15 05:55:23;;;;;;;3.95;2.67;;;7.90;90.80;;;;;;4978944;28;20046;-82
2020/12/15 05:57:50;;;;;;;3.50;2.60;;;7.90;91.10;;;;;;4978807;28;20474;-82
2020/12/15 06:00:15;;;;;;;2.60;2.28;;;7.90;90.80;;;;;;4994941;28;20468;-82
2020/12/15 06:02:41;;;;;;;2.58;2.22;;;7.90;90.80;;;;;;4994500;28;20069;-82
2020/12/15 06:05:07;;;;;;;2.60;2.40;;;;;;;;;;4994632;28;20061;-82
2020/12/15 06:07:33;;;;;;;2.92;2.50;;;;;;;;;;5011031;28;20026;-83
2020/12/15 06:09:59;;;;;;;3.88;2.85;;;8.10;88.00;;;;;;5011073;28;20022;-83
2020/12/15 06:12:24;;;;;;;3.50;2.85;;;8.00;89.10;;;;;;4994659;28;20455;-83
2020/12/15 06:14:50;;;;;;;44.95;21.30;;;8.00;89.60;;;;;;4994161;28;20046;-85
2020/12/15 06:17:17;;;;;;;36.78;23.05;;;8.20;99.90;;;;;;4988240;28;20172;-81
2020/12/15 06:19:43;;;;;;;10.13;6.82;;;8.00;96.70;;;;;;4998433;28;20427;-80
2020/12/15 06:22:09;;;;;;;9.05;5.80;;;8.00;90.20;;;;;;4998152;28;20030;-84
2020/12/15 06:24:40;;;;;;;8.05;4.30;;;7.90;90.30;;;;;;4981917;28;20034;-87
2020/12/15 06:27:11;;;;;;;6.88;4.30;;;7.80;90.70;;;;;;4983590;28;20076;-86
2020/12/15 06:29:40;;;;;;;4.85;4.13;;;7.90;95.20;;;;;;4982017;28;20542;-86
2020/12/15 06:32:18;;;;;;;5.63;4.13;;;7.50;95.80;;;;;;4982023;28;20034;-89
2020/12/15 06:34:47;;;;;;;4.43;3.92;;;7.60;91.70;;;;;;4981726;28;20430;-83
2020/12/15 06:37:17;;;;;;;5.47;3.47;;;7.80;91.70;;;;;;4980933;28;20061;-81
2020/12/15 06:40:03;;;;;;;6.03;5.15;;;7.50;91.70;;;;;;5013936;28;20030;-81
2020/12/15 06:42:29;;;;;;;5.15;3.20;;;7.40;99.90;;;;;;4981937;28;20025;-78
2020/12/15 06:45:08;;;;;;;4.22;3.20;;;7.50;91.60;;;;;;4997841;28;20518;-87
2020/12/15 06:47:34;;;;;;;4.30;3.10;;;7.60;95.50;;;;;;4998801;28;20037;-80
2020/12/15 06:50:13;;;;;;;5.10;3.17;;;7.60;91.60;;;;;;4981326;28;20473;-79
2020/12/15 06:52:39;;;;;;;3.55;3.00;;;7.60;91.40;;;;;;4981065;28;20071;-80
2020/12/15 06:55:04;;;;;;;3.58;3.20;;;7.70;91.40;;;;;;5013631;28;20751;-80
2020/12/15 06:57:34;;;;;;;4.30;3.65;;;7.70;99.90;;;;;;4995181;28;20034;-80
2020/12/15 07:00:07;;;;;;;6.18;3.22;;;7.70;96.20;;;;;;4989470;28;20083;-80
2020/12/15 07:02:33;;;;;;;4.22;3.40;;;7.70;91.20;;;;;;4998336;28;20021;-83
2020/12/15 07:05:24;;;;;;;9.75;6.82;;;7.80;91.00;;;;;;4995666;28;20499;-85
2020/12/15 07:07:50;;;;;;;7.00;5.03;;;7.80;90.90;;;;;;5022079;28;20052;-83
2020/12/15 07:10:16;;;;;;;6.22;3.78;;;7.60;99.90;;;;;;4991121;28;20134;-81
2020/12/15 07:12:42;;;;;;;4.97;3.83;;;7.80;92.40;;;;;;4999310;28;20470;-82
2020/12/15 07:15:11;;;;;;;7.22;6.20;;;7.90;92.80;;;;;;5013153;28;20038;-84
2020/12/15 07:17:36;;;;;;;6.45;3.80;;;7.80;93.00;;;;;;4997208;28;20034;-81
2020/12/15 07:20:02;;;;;;;5.07;3.50;;;7.80;92.60;;;;;;4997111;28;20022;-81
2020/12/15 07:22:28;;;;;;;5.18;3.67;;;8.00;99.90;;;;;;4997317;28;20376;-80
2020/12/15 07:24:53;;;;;;;4.22;3.53;;;7.80;91.80;;;;;;5012700;28;20034;-84
2020/12/15 07:27:19;;;;;;;4.65;3.83;;;7.80;91.70;;;;;;4996703;28;20065;-81
2020/12/15 07:29:52;;;;;;;3.88;3.33;;;7.90;91.60;;;;;;4980513;28;20072;-82
2020/12/15 07:32:18;;;;;;;4.72;4.22;;;8.00;98.30;;;;;;4980435;28;20041;-84
2020/12/15 07:34:44;;;;;;;5.70;4.20;;;;;;;;;;4980426;28;20045;-81
2020/12/15 07:37:10;;;;;;;9.50;6.43;;;7.70;95.10;;;;;;5013101;28;20030;-82
2020/12/15 07:39:35;;;;;;;7.65;5.80;;;7.70;92.90;;;;;;4996655;28;20026;-83
2020/12/15 07:42:02;;;;;;;6.20;4.72;;;7.70;93.90;;;;;;5029092;28;20559;-80
2020/12/15 07:44:28;;;;;;;9.70;5.75;;;7.50;99.90;;;;;;5014214;28;20065;-81
2020/12/15 07:46:57;;;;;;;11.20;6.38;;;7.70;93.20;;;;;;5012740;28;20107;-81
2020/12/15 07:49:31;;;;;;;9.32;5.65;;;7.70;93.20;;;;;;5029019;28;20033;-83
2020/12/15 07:52:38;;;;;;;5.75;4.43;;;7.80;93.30;;;;;;5012289;28;20384;-81
2020/12/15 07:55:08;;;;;;;5.05;3.80;;;6.10;91.60;;;;;;4948288;28;20059;-83
2020/12/15 07:57:35;;;;;;;3.30;2.70;;;8.00;91.90;;;;;;4982088;28;20049;-85
2020/12/15 08:00:09;;;;;;;4.93;2.67;;;8.30;95.40;;;;;;4993072;28;20027;-80
2020/12/15 08:02:35;;;;;;;10.40;6.65;;;8.40;91.70;;;;;;4993640;28;20037;-80
2020/12/15 08:05:11;;;;;;;5.90;3.67;;;8.40;91.30;;;;;;4993047;28;20035;-80
2020/12/15 08:07:44;;;;;;;5.63;3.08;;;8.80;98.10;;;;;;4993056;28;20037;-80
2020/12/15 08:10:10;;;;;;;4.45;3.28;;;8.60;90.50;;;;;;4992418;28;20029;-81
2020/12/15 08:12:36;;;;;;;4.10;3.17;;;;;;;;;;4992956;28;20037;-82
2020/12/15 08:15:02;;;;;;;6.25;4.18;;;8.80;94.10;;;;;;4992394;28;20069;-82
2020/12/15 08:17:32;;;;;;;8.25;3.85;;;8.80;90.40;;;;;;4976361;28;20066;-82
2020/12/15 08:20:06;;;;;;;4.55;3.40;;;8.80;90.60;;;;;;4992907;28;20034;-81
2020/12/15 08:22:37;;;;;;;4.20;3.17;;;8.80;90.60;;;;;;4993121;28;20041;-81
2020/12/15 08:25:02;;;;;;;3.15;2.80;;;8.90;99.90;;;;;;4976992;28;20031;-81
2020/12/15 08:27:29;;;;;;;9.55;6.68;;;8.80;97.60;;;;;;4992233;28;20676;-80
2020/12/15 08:29:54;;;;;;;15.73;12.35;;;8.80;90.70;;;;;;4976356;28;20472;-82
2020/12/15 08:32:27;;;;;;;4.22;3.83;;;8.80;90.90;;;;;;4993377;28;20033;-82
2020/12/15 08:35:00;;;;;;;13.55;4.35;;;8.90;90.70;;;;;;4975908;28;20112;-81
2020/12/15 08:37:27;;;;;;;5.07;4.03;;;;;;;;;;4991510;28;20376;-82
2020/12/15 08:39:53;;;;;;;3.92;3.03;;;9.10;94.90;;;;;;4992292;28;20045;-80
2020/12/15 08:42:18;;;;;;;3.67;2.80;;;9.00;91.00;;;;;;4992012;28;20108;-82
2020/12/15 08:44:44;;;;;;;5.20;3.40;;;9.20;90.60;;;;;;4992284;28;20068;-81
2020/12/15 08:47:09;;;;;;;3.95;3.30;;;9.30;90.80;;;;;;4992199;28;20496;-81
2020/12/15 08:49:36;;;;;;;5.72;4.15;;;9.60;90.60;;;;;;4975437;28;20030;-81
2020/12/15 08:52:02;;;;;;;5.72;3.45;;;;;;;;;;4992073;28;20022;-80
2020/12/15 08:54:28;;;;;;;5.78;3.97;;;9.50;89.00;;;;;;5008033;28;20389;-82
2020/12/15 08:56:54;;;;;;;6.28;4.45;;;9.50;89.90;;;;;;5027699;28;20054;-82
2020/12/15 08:59:25;;;;;;;5.80;3.42;;;9.50;99.90;;;;;;5011528;28;20026;-80
2020/12/15 09:01:57;;;;;;;3.85;3.22;;;9.40;98.00;;;;;;4995662;28;20064;-81
2020/12/15 09:04:26;;;;;;;3.63;2.80;;;9.40;90.70;;;;;;5011607;28;20457;-80
2020/12/15 09:06:52;;;;;;;3.92;3.33;;;9.30;90.80;;;;;;5027747;28;20034;-82
2020/12/15 09:09:26;;;;;;;4.25;2.85;;;9.20;91.30;;;;;;5027728;28;20101;-80
2020/12/15 09:11:54;;;;;;;4.60;3.30;;;9.30;97.30;;;;;;5011496;28;20033;-81
2020/12/15 09:14:20;;;;;;;6.93;3.85;;;9.20;97.30;;;;;;5001215;28;20036;-79
2020/12/15 09:16:45;;;;;;;7.43;3.58;;;9.30;91.70;;;;;;5007886;28;20038;-79
2020/12/15 09:19:16;;;;;;;5.47;3.40;;;9.40;91.90;;;;;;5007977;28;20477;-80
2020/12/15 09:21:42;;;;;;;6.38;2.97;;;9.50;91.10;;;;;;4991827;28;20085;-80
2020/12/15 09:24:08;;;;;;;4.25;3.35;;;9.60;99.90;;;;;;4991730;28;20030;-79
2020/12/15 09:26:35;;;;;;;5.32;3.10;;;9.70;96.60;;;;;;4991723;28;20033;-80
2020/12/15 09:29:10;;;;;;;5.45;2.90;;;9.80;98.20;;;;;;4991371;28;20042;-80
2020/12/15 09:31:37;;;;;;;3.33;3.00;;;9.70;90.90;;;;;;5008155;28;20034;-79
2020/12/15 09:34:02;;;;;;;12.10;3.10;;;9.70;98.60;;;;;;4991956;28;20026;-80
2020/12/15 09:36:28;;;;;;;5.22;2.80;;;;;;;;;;5027575;28;20038;-85
2020/12/15 09:38:54;;;;;;;47.65;33.88;;;9.90;94.90;;;;;;5012380;28;20026;-81
2020/12/15 09:41:19;;;;;;;7.93;7.20;;;10.00;91.20;;;;;;5011238;28;20084;-80
2020/12/15 09:43:45;;;;;;;6.20;5.70;;;10.00;91.80;;;;;;5027654;28;20026;-81
2020/12/15 09:46:11;;;;;;;8.30;7.55;;;10.00;99.90;;;;;;5027593;28;20092;-83
2020/12/15 09:48:36;;;;;;;7.43;4.60;;;10.20;91.40;;;;;;5030561;28;20057;-79
2020/12/15 09:51:03;;;;;;;5.93;4.45;;;10.10;96.50;;;;;;5014606;28;20060;-80
2020/12/15 09:53:29;;;;;;;7.30;6.30;;;;;;;;;;5030986;28;20050;-81
2020/12/15 09:55:55;;;;;;;4.43;4.03;;;10.30;91.10;;;;;;5031112;28;20053;-79
2020/12/15 09:58:20;;;;;;;4.47;3.60;;;10.70;99.90;;;;;;5015947;28;20034;-82
2020/12/15 10:00:46;;;;;;;10.93;4.25;;;10.60;91.60;;;;;;5014737;28;20084;-80
2020/12/15 10:03:12;;;;;;;5.78;2.85;;;10.70;91.40;;;;;;5031187;28;20057;-81
2020/12/15 10:05:39;;;;;;;3.50;2.97;;;10.70;89.70;;;;;;5031288;28;20029;-81
2020/12/15 10:08:05;;;;;;;4.30;3.88;;;10.70;90.40;;;;;;5030656;28;20527;-81
2020/12/15 10:10:31;;;;;;;5.22;3.95;;;;;;;;;;5031230;28;20041;-82
2020/12/15 10:12:56;;;;;;;5.40;3.60;;;11.00;93.70;;;;;;5015461;28;20032;-81
2020/12/15 10:15:24;;;;;;;6.38;4.20;;;10.90;90.60;;;;;;5030854;28;20037;-82
2020/12/15 10:17:49;;;;;;;12.85;11.48;;;10.90;90.90;;;;;;5015866;28;20057;-81
2020/12/15 10:20:15;;;;;;;6.47;3.80;;;10.90;91.10;;;;;;5030748;28;20491;-82
2020/12/15 10:22:41;;;;;;;7.82;5.43;;;11.10;99.90;;;;;;5030706;28;20464;-80
2020/12/15 10:25:07;;;;;;;8.50;4.95;;;10.90;96.00;;;;;;5015673;28;20029;-80
2020/12/15 10:27:33;;;;;;;49.30;44.40;;;11.00;91.40;;;;;;5014172;28;20038;-82
2020/12/15 10:30:01;;;;;;;38.92;35.08;;;11.10;91.40;;;;;;5030707;28;20065;-81
2020/12/15 10:32:26;;;;;;;12.63;11.32;;;11.10;91.10;;;;;;5014251;28;20484;-81
2020/12/15 10:34:52;;;;;;;10.10;9.02;;;11.10;91.40;;;;;;5013932;28;20064;-81
2020/12/15 10:37:22;;;;;;;14.30;12.07;;;11.20;91.70;;;;;;5013889;28;20040;-80
2020/12/15 10:39:48;;;;;;;5.32;4.82;;;11.20;91.70;;;;;;5013849;28;20038;-81
2020/12/15 10:42:14;;;;;;;7.38;4.82;;;11.40;92.00;;;;;;5013784;28;20073;-82
2020/12/15 10:44:40;;;;;;;3.95;2.92;;;11.20;92.10;;;;;;4997701;28;20040;-81
2020/12/15 10:47:05;;;;;;;5.82;3.30;;;11.40;99.90;;;;;;5013809;28;20121;-80
2020/12/15 10:49:31;;;;;;;3.72;3.40;;;11.40;96.80;;;;;;5013701;28;20076;-81
2020/12/15 10:51:57;;;;;;;7.97;3.70;;;11.20;92.50;;;;;;5014812;28;20026;-81
2020/12/15 10:54:22;;;;;;;6.93;6.20;;;11.20;92.60;;;;;;5013306;28;20050;-81
2020/12/15 10:56:48;;;;;;;7.93;6.35;;;11.20;92.50;;;;;;5013768;28;20114;-81
2020/12/15 10:59:13;;;;;;;6.20;5.60;;;11.20;99.90;;;;;;5013122;28;20104;-81
2020/12/15 11:01:39;;;;;;;8.00;7.05;;;11.20;97.10;;;;;;5013593;28;20121;-82
2020/12/15 11:04:05;;;;;;;4.70;4.30;;;11.20;92.80;;;;;;5013637;28;20026;-81
2020/12/15 11:06:35;;;;;;;5.35;4.38;;;11.20;93.00;;;;;;5030043;28;20041;-80
2020/12/15 11:09:00;;;;;;;5.30;3.50;;;11.20;93.40;;;;;;5013116;28;20034;-81
2020/12/15 11:11:26;;;;;;;4.30;3.33;;;11.20;99.90;;;;;;5011766;28;20100;-80
2020/12/15 11:13:52;;;;;;;6.25;5.65;;;11.10;97.70;;;;;;5010892;28;20045;-80
2020/12/15 11:16:21;;;;;;;5.07;3.80;;;11.10;92.90;;;;;;4995279;28;20112;-80
2020/12/15 11:18:47;;;;;;;8.68;6.03;;;11.00;93.10;;;;;;5021535;28;20464;-80
2020/12/15 11:21:13;;;;;;;13.63;9.95;;;11.00;93.10;;;;;;4996088;28;20041;-80
2020/12/15 11:23:39;;;;;;;9.98;6.57;;;;;;;;;;5011785;28;20030;-83
2020/12/15 11:26:05;;;;;;;7.47;3.90;;;11.00;95.90;;;;;;5007208;28;20084;-82
2020/12/15 11:28:30;;;;;;;11.30;6.80;;;10.90;92.90;;;;;;5011438;28;20088;-82
2020/12/15 11:30:56;;;;;;;9.23;8.32;;;10.90;93.20;;;;;;5012282;28;20029;-82
2020/12/15 11:33:21;;;;;;;11.82;7.10;;;10.90;93.50;;;;;;4996959;28;20544;-82
2020/12/15 11:35:49;;;;;;;11.07;5.38;;;10.80;93.60;;;;;;5013198;28;20052;-82
2020/12/15 11:38:17;;;;;;;6.10;5.35;;;10.00;98.30;;;;;;5012934;28;20483;-84
2020/12/15 11:40:42;;;;;;;12.35;5.68;;;10.80;93.80;;;;;;4997136;28;20029;-82
2020/12/15 11:43:08;;;;;;;8.05;4.65;;;10.80;94.00;;;;;;5014602;28;20101;-82
2020/12/15 11:45:34;;;;;;;10.68;4.78;;;10.90;99.90;;;;;;5014294;28;20033;-81
2020/12/15 11:48:00;;;;;;;8.15;4.63;;;10.80;94.30;;;;;;5013129;28;20494;-82
2020/12/15 11:50:28;;;;;;;10.45;5.57;;;10.80;94.00;;;;;;4980410;28;20034;-82
2020/12/15 11:52:55;;;;;;;6.53;3.85;;;10.80;94.10;;;;;;4996444;28;20046;-83
2020/12/15 11:55:21;;;;;;;11.57;8.15;;;10.80;93.90;;;;;;5012887;28;20038;-82
2020/12/15 11:57:51;;;;;;;6.40;5.65;;;10.50;99.10;;;;;;5012822;28;20105;-82
2020/12/15 12:00:17;;;;;;;5.82;5.22;;;10.80;93.90;;;;;;4996341;28;20034;-82
2020/12/15 12:02:43;;;;;;;7.50;4.10;;;10.90;94.20;;;;;;5012646;28;20101;-82
2020/12/15 12:05:08;;;;;;;10.93;6.50;;;10.90;94.00;;;;;;5013627;28;20039;-82
2020/12/15 12:07:34;;;;;;;10.32;6.85;;;10.90;93.90;;;;;;4996252;28;20120;-82
2020/12/15 12:09:59;;;;;;;11.27;7.25;;;10.80;99.90;;;;;;5013705;28;20084;-83
2020/12/15 12:12:25;;;;;;;13.52;8.02;;;10.90;93.90;;;;;;5012768;28;20096;-82
2020/12/15 12:14:50;;;;;;;10.77;6.88;;;10.90;93.90;;;;;;5013502;28;20084;-82
2020/12/15 12:17:16;;;;;;;6.28;5.50;;;10.90;94.10;;;;;;4995843;28;20121;-82
2020/12/15 12:19:42;;;;;;;5.63;5.00;;;11.00;93.90;;;;;;4995889;28;20439;-82
2020/12/15 12:22:08;;;;;;;5.80;4.13;;;11.10;99.90;;;;;;4996025;28;20463;-83
2020/12/15 12:24:33;;;;;;;6.05;3.92;;;11.00;93.90;;;;;;4995965;28;20396;-83
2020/12/15 12:27:00;;;;;;;7.38;4.35;;;10.90;94.10;;;;;;5012118;28;20025;-82
2020/12/15 12:29:28;;;;;;;7.05;4.10;;;10.90;94.20;;;;;;5012198;28;20030;-82
2020/12/15 12:31:54;;;;;;;6.40;4.40;;;10.90;94.10;;;;;;4979949;28;20022;-83
2020/12/15 12:34:20;;;;;;;5.43;4.32;;;10.70;99.90;;;;;;4995757;28;20037;-82
2020/12/15 12:36:45;;;;;;;7.57;4.35;;;10.80;94.30;;;;;;5012081;28;20026;-82
2020/12/15 12:39:11;;;;;;;27.30;14.40;;;10.80;94.40;;;;;;4995833;28;20512;-82
2020/12/15 12:41:37;;;;;;;18.25;13.05;;;10.90;94.50;;;;;;4995593;28;20114;-82
2020/12/15 12:44:02;;;;;;;11.30;6.45;;;10.90;94.70;;;;;;5013083;28;20388;-82
2020/12/15 12:46:28;;;;;;;6.03;4.38;;;12.30;99.90;;;;;;4979436;28;20034;-82
2020/12/15 12:48:54;;;;;;;8.70;5.45;;;10.80;94.40;;;;;;5011578;28;20025;-83
2020/12/15 12:51:19;;;;;;;8.50;6.63;;;10.90;99.20;;;;;;5003266;28;20428;-82
2020/12/15 12:53:45;;;;;;;10.32;6.00;;;10.80;94.70;;;;;;5004346;28;20165;-81
2020/12/15 12:56:11;;;;;;;7.03;5.43;;;10.80;94.80;;;;;;4991830;28;20477;-82
2020/12/15 12:58:38;;;;;;;6.15;5.13;;;10.00;99.90;;;;;;4991348;28;20040;-81